Time;durP1;ratioP1;P1;durP2;ratioP2;P2;SDS_P1;SDS_P2;PMS_P1;PMS_P2;Temp;Humidity;BMP_temperature;BMP_pressure;BME280_temperature;BME280_humidity;BME280_pressure;Samples;Min_cycle;Max_cycle;Signal;HPM_P1;HPM_P2
2023/06/18 00:01:23;;;;;;;34.15;28.10;;;;;;;;;;4999344;28;20046;-74
2023/06/18 00:03:49;;;;;;;34.33;28.80;;;;;;;;;;5008063;28;20049;-74
2023/06/18 00:06:15;;;;;;;33.40;29.25;;;;;;;;;;5005458;28;20059;-74
2023/06/18 00:08:41;;;;;;;32.85;28.30;;;;;;;;;;5005144;28;20046;-74
2023/06/18 00:11:07;;;;;;;32.47;28.45;;;;;;;;;;5003267;28;20038;-73
2023/06/18 00:13:33;;;;;;;35.95;30.02;;;;;;;;;;4999033;28;20088;-74
2023/06/18 00:15:59;;;;;;;32.42;27.98;;;;;;;;;;5011949;28;20048;-73
2023/06/18 00:18:25;;;;;;;31.35;28.05;;;;;;;;;;5017941;28;20045;-74
2023/06/18 00:20:51;;;;;;;42.10;37.53;;;;;;;;;;5010466;28;20050;-74
2023/06/18 00:23:17;;;;;;;31.42;27.83;;;;;;;;;;4998517;28;20436;-74
2023/06/18 00:25:43;;;;;;;34.55;28.42;;;;;;;;;;5004875;28;20061;-74
2023/06/18 00:28:10;;;;;;;32.35;28.85;;;;;;;;;;5018364;28;20053;-73
2023/06/18 00:30:36;;;;;;;31.77;28.15;;;;;;;;;;5014094;28;20037;-73
2023/06/18 00:33:03;;;;;;;32.80;28.73;;;;;;;;;;5007867;28;20046;-73
2023/06/18 00:35:31;;;;;;;33.75;27.25;;;;;;;;;;5016528;28;20045;-74
2023/06/18 00:37:59;;;;;;;31.70;28.30;;;;;;;;;;5002751;28;20042;-74
2023/06/18 00:40:25;;;;;;;33.65;29.35;;;;;;;;;;5017802;28;20050;-74
2023/06/18 00:42:52;;;;;;;33.97;30.27;;;;;;;;;;5012749;28;20038;-73
2023/06/18 00:45:18;;;;;;;33.00;29.13;;;;;;;;;;5018007;28;20048;-73
2023/06/18 00:47:44;;;;;;;34.72;29.83;;;;;;;;;;5015384;28;20558;-73
2023/06/18 00:50:16;;;;;;;35.15;29.02;;;;;;;;;;4999891;28;20042;-75
2023/06/18 00:52:44;;;;;;;39.78;34.72;;;;;;;;;;5012123;28;20377;-75
2023/06/18 00:55:12;;;;;;;37.55;33.42;;;;;;;;;;4998132;28;20508;-74
2023/06/18 00:57:38;;;;;;;35.83;31.92;;;;;;;;;;4997891;28;20546;-74
2023/06/18 01:00:10;;;;;;;34.50;30.73;;;;;;;;;;4999302;28;20050;-74
2023/06/18 01:02:36;;;;;;;38.22;32.83;;;;;;;;;;5005550;28;20040;-74
2023/06/18 01:05:03;;;;;;;36.97;32.72;;;;;;;;;;4997490;28;20422;-74
2023/06/18 01:07:29;;;;;;;36.03;32.20;;;;;;;;;;4980752;28;20117;-73
2023/06/18 01:09:56;;;;;;;35.78;31.88;;;;;;;;;;5014815;28;20050;-74
2023/06/18 01:12:22;;;;;;;39.08;32.58;;;;;;;;;;4996606;28;20110;-73
2023/06/18 01:14:52;;;;;;;36.80;32.50;;;;;;;;;;4998620;28;20045;-73
2023/06/18 01:17:22;;;;;;;37.38;32.05;;;;;;;;;;5008512;28;20046;-74
2023/06/18 01:19:49;;;;;;;37.33;32.23;;;;;;;;;;4997804;28;20464;-74
2023/06/18 01:22:32;;;;;;;36.72;32.72;;;;;;;;;;5001919;28;20053;-75
2023/06/18 01:25:02;;;;;;;36.13;32.22;;;;;;;;;;5015879;28;20532;-73
2023/06/18 01:27:28;;;;;;;38.78;33.72;;;;;;;;;;5016628;28;20121;-74
2023/06/18 01:29:55;;;;;;;37.65;33.03;;;;;;;;;;5016734;28;20042;-74
2023/06/18 01:32:21;;;;;;;38.95;33.85;;;;;;;;;;5015698;28;20042;-74
2023/06/18 01:34:47;;;;;;;37.80;32.25;;;;;;;;;;5015560;28;20120;-73
2023/06/18 01:37:16;;;;;;;39.05;33.00;;;;;;;;;;5012802;28;20038;-74
2023/06/18 01:40:08;;;;;;;41.15;34.30;;;;;;;;;;5015241;28;20510;-74
2023/06/18 01:42:36;;;;;;;39.53;34.15;;;;;;;;;;5004209;28;20045;-74
2023/06/18 01:45:05;;;;;;;39.72;33.88;;;;;;;;;;4998743;28;20197;-74
2023/06/18 01:47:32;;;;;;;37.78;32.95;;;;;;;;;;4999623;28;20049;-74
2023/06/18 01:49:59;;;;;;;38.45;31.67;;;;;;;;;;5009014;28;20046;-74
2023/06/18 01:52:26;;;;;;;35.67;30.98;;;;;;;;;;4999710;28;20041;-74
2023/06/18 01:54:53;;;;;;;36.53;32.63;;;;;;;;;;5011920;28;20045;-74
2023/06/18 01:57:19;;;;;;;36.90;30.95;;;;;;;;;;5004966;28;20051;-74
2023/06/18 01:59:45;;;;;;;37.25;30.75;;;;;;;;;;4995873;28;20124;-74
2023/06/18 02:02:12;;;;;;;36.65;31.75;;;;;;;;;;5011428;28;20038;-73
2023/06/18 02:04:43;;;;;;;34.97;31.15;;;;;;;;;;5007779;28;20104;-74
2023/06/18 02:07:09;;;;;;;;;;;;;;;;;;5002591;28;20046;-74
2023/06/18 02:09:35;;;;;;;36.53;32.55;;;;;;;;;;4998937;28;19921;-73
2023/06/18 02:12:01;;;;;;;37.85;33.78;;;;;;;;;;5011487;28;20128;-74
2023/06/18 02:14:28;;;;;;;39.20;32.75;;;;;;;;;;5010693;28;20054;-74
2023/06/18 02:16:55;;;;;;;42.58;35.35;;;;;;;;;;5007173;28;20126;-73
2023/06/18 02:19:21;;;;;;;39.78;33.55;;;;;;;;;;5000687;28;20053;-75
2023/06/18 02:21:47;;;;;;;39.78;33.35;;;;;;;;;;5013943;28;20087;-74
2023/06/18 02:24:16;;;;;;;38.97;33.97;;;;;;;;;;4997521;28;20061;-75
2023/06/18 02:26:42;;;;;;;43.40;35.22;;;;;;;;;;5014078;28;20053;-73
2023/06/18 02:29:08;;;;;;;40.13;34.88;;;;;;;;;;5015305;28;20558;-74
2023/06/18 02:31:35;;;;;;;40.50;35.65;;;;;;;;;;5008043;28;20389;-74
2023/06/18 02:34:01;;;;;;;43.08;35.53;;;;;;;;;;5014412;28;20065;-74
2023/06/18 02:36:27;;;;;;;39.55;34.35;;;;;;;;;;4998950;28;20042;-73
2023/06/18 02:38:53;;;;;;;38.03;33.65;;;;;;;;;;5020637;28;20092;-74
2023/06/18 02:41:20;;;;;;;40.47;33.95;;;;;;;;;;5001681;28;20097;-73
2023/06/18 02:43:49;;;;;;;36.67;32.72;;;;;;;;;;5017529;28;20045;-73
2023/06/18 02:46:16;;;;;;;35.33;31.13;;;;;;;;;;5018099;28;20125;-74
2023/06/18 02:48:42;;;;;;;37.40;33.33;;;;;;;;;;5017081;28;20049;-74
2023/06/18 02:51:08;;;;;;;36.80;30.23;;;;;;;;;;5011064;28;20050;-73
2023/06/18 02:53:34;;;;;;;38.05;31.70;;;;;;;;;;4984380;28;20058;-74
2023/06/18 02:56:01;;;;;;;36.28;32.25;;;;;;;;;;5011938;28;20048;-74
2023/06/18 02:58:30;;;;;;;39.95;33.90;;;;;;;;;;5020222;28;20097;-73
2023/06/18 03:00:57;;;;;;;41.45;34.50;;;;;;;;;;5013042;28;20109;-75
2023/06/18 03:03:23;;;;;;;39.05;33.78;;;;;;;;;;4999054;28;20046;-75
2023/06/18 03:05:50;;;;;;;42.13;35.58;;;;;;;;;;5002277;28;20058;-75
2023/06/18 03:08:16;;;;;;;40.25;34.10;;;;;;;;;;5001871;28;20386;-75
2023/06/18 03:10:43;;;;;;;37.20;33.15;;;;;;;;;;4997667;28;20115;-74
2023/06/18 03:13:09;;;;;;;37.65;33.38;;;;;;;;;;5002289;28;20054;-74
2023/06/18 03:15:35;;;;;;;42.13;35.83;;;;;;;;;;4996686;28;20408;-74
2023/06/18 03:18:01;;;;;;;43.47;36.00;;;;;;;;;;5001877;28;20060;-74
2023/06/18 03:20:28;;;;;;;38.20;32.75;;;;;;;;;;5017151;28;20046;-73
2023/06/18 03:22:54;;;;;;;45.30;36.83;;;;;;;;;;5014313;28;20046;-74
2023/06/18 03:25:20;;;;;;;43.95;38.15;;;;;;;;;;5017636;28;20096;-74
2023/06/18 03:27:47;;;;;;;39.75;35.35;;;;;;;;;;5011695;28;20038;-74
2023/06/18 03:30:13;;;;;;;40.75;35.10;;;;;;;;;;5006539;28;20049;-74
2023/06/18 03:32:40;;;;;;;35.20;30.95;;;;;;;;;;5017229;28;20034;-74
2023/06/18 03:35:06;;;;;;;29.95;26.95;;;;;;;;;;5016675;28;20061;-74
2023/06/18 03:37:32;;;;;;;32.58;29.45;;;;;;;;;;4997821;28;20054;-74
2023/06/18 03:39:58;;;;;;;34.13;30.63;;;;;;;;;;4997655;28;20477;-74
2023/06/18 03:42:25;;;;;;;33.05;29.67;;;;;;;;;;4999912;28;20046;-74
2023/06/18 03:44:51;;;;;;;32.90;29.67;;;;;;;;;;5007694;28;20046;-75
2023/06/18 03:47:17;;;;;;;32.97;29.63;;;;;;;;;;5015776;28;20052;-74
2023/06/18 03:49:44;;;;;;;29.50;26.70;;;;;;;;;;5016983;28;20042;-74
2023/06/18 03:52:10;;;;;;;31.00;27.90;;;;;;;;;;4998780;28;20050;-74
2023/06/18 03:54:38;;;;;;;31.42;28.33;;;;;;;;;;4998323;28;20057;-74
2023/06/18 03:57:04;;;;;;;34.72;31.23;;;;;;;;;;4996564;28;20057;-74
2023/06/18 03:59:31;;;;;;;33.30;29.92;;;;;;;;;;4996116;28;20058;-74
2023/06/18 04:01:57;;;;;;;32.38;29.13;;;;;;;;;;5001503;28;20049;-74
2023/06/18 04:04:23;;;;;;;31.27;28.08;;;;;;;;;;5015553;28;20092;-74
2023/06/18 04:06:49;;;;;;;32.92;29.58;;;;;;;;;;5000277;28;20047;-76
2023/06/18 04:09:15;;;;;;;34.80;30.30;;;;;;;;;;4998891;28;20089;-75
2023/06/18 04:11:42;;;;;;;35.28;31.58;;;;;;;;;;5008834;28;20403;-74
2023/06/18 04:14:09;;;;;;;33.20;29.80;;;;;;;;;;5008621;28;20061;-73
2023/06/18 04:16:35;;;;;;;40.50;30.63;;;;;;;;;;5010649;28;20050;-74
2023/06/18 04:19:01;;;;;;;36.40;32.53;;;;;;;;;;5002719;28;20048;-74
2023/06/18 04:21:27;;;;;;;42.38;35.10;;;;;;;;;;5000949;28;20058;-74
2023/06/18 04:23:54;;;;;;;53.92;37.08;;;;;;;;;;5004493;28;20054;-74
2023/06/18 04:26:20;;;;;;;52.08;37.40;;;;;;;;;;5001028;28;20050;-73
2023/06/18 04:28:46;;;;;;;45.97;36.60;;;;;;;;;;4996070;28;20091;-74
2023/06/18 04:31:12;;;;;;;49.55;37.97;;;;;;;;;;5004225;28;20054;-74
2023/06/18 04:33:38;;;;;;;44.20;37.90;;;;;;;;;;5002538;28;20443;-74
2023/06/18 04:36:05;;;;;;;47.88;36.05;;;;;;;;;;5012416;28;20038;-74
2023/06/18 04:38:31;;;;;;;85.72;39.13;;;;;;;;;;5016465;28;20111;-73
2023/06/18 04:40:57;;;;;;;58.15;39.33;;;;;;;;;;5009417;28;20069;-74
2023/06/18 04:43:23;;;;;;;56.35;37.70;;;;;;;;;;5003329;28;20069;-73
2023/06/18 04:45:51;;;;;;;64.35;39.78;;;;;;;;;;4995828;28;20559;-74
2023/06/18 04:48:18;;;;;;;51.17;38.88;;;;;;;;;;4996643;28;20188;-74
2023/06/18 04:50:44;;;;;;;48.35;38.08;;;;;;;;;;4995923;28;20088;-74
2023/06/18 04:53:10;;;;;;;43.30;37.38;;;;;;;;;;5015406;28;20041;-74
2023/06/18 04:55:37;;;;;;;47.45;38.22;;;;;;;;;;5015595;28;20053;-74
2023/06/18 04:58:04;;;;;;;44.22;37.33;;;;;;;;;;5003842;28;20095;-73
2023/06/18 05:00:31;;;;;;;42.75;36.85;;;;;;;;;;4996166;28;20134;-73
2023/06/18 05:02:57;;;;;;;44.63;38.17;;;;;;;;;;5003449;28;20121;-74
2023/06/18 05:05:23;;;;;;;42.08;36.40;;;;;;;;;;5005398;28;20047;-74
2023/06/18 05:07:50;;;;;;;40.63;35.92;;;;;;;;;;5001420;28;20519;-75
2023/06/18 05:10:16;;;;;;;41.58;34.70;;;;;;;;;;4999395;28;20072;-74
2023/06/18 05:12:42;;;;;;;39.33;34.63;;;;;;;;;;5000429;28;20046;-72
2023/06/18 05:15:09;;;;;;;42.50;34.78;;;;;;;;;;5005780;28;20050;-74
2023/06/18 05:17:35;;;;;;;41.55;35.20;;;;;;;;;;4999119;28;20124;-74
2023/06/18 05:20:01;;;;;;;41.35;34.45;;;;;;;;;;5000288;28;20105;-73
2023/06/18 05:22:27;;;;;;;40.25;35.42;;;;;;;;;;4994014;28;20038;-74
2023/06/18 05:24:53;;;;;;;41.90;34.65;;;;;;;;;;5004745;28;20053;-73
2023/06/18 05:27:19;;;;;;;37.17;33.15;;;;;;;;;;5012417;28;20046;-75
2023/06/18 05:29:45;;;;;;;35.40;31.58;;;;;;;;;;5003771;28;20058;-73
2023/06/18 05:32:11;;;;;;;36.90;32.03;;;;;;;;;;5009146;28;20084;-74
2023/06/18 05:34:37;;;;;;;33.75;30.10;;;;;;;;;;4996340;28;20035;-74
2023/06/18 05:37:03;;;;;;;32.45;29.02;;;;;;;;;;4994103;28;20086;-76
2023/06/18 05:39:30;;;;;;;33.53;30.13;;;;;;;;;;4998320;28;20050;-73
2023/06/18 05:41:56;;;;;;;31.92;28.58;;;;;;;;;;5008117;28;20046;-74
2023/06/18 05:44:22;;;;;;;31.48;28.17;;;;;;;;;;5004037;28;20046;-73
2023/06/18 05:46:48;;;;;;;30.25;27.02;;;;;;;;;;4996693;28;20045;-75
2023/06/18 05:49:15;;;;;;;31.20;28.10;;;;;;;;;;5004290;28;20034;-74
2023/06/18 05:51:41;;;;;;;29.20;26.10;;;;;;;;;;4993136;28;20413;-74
2023/06/18 05:54:07;;;;;;;30.17;26.90;;;;;;;;;;4996376;28;20050;-75
2023/06/18 05:56:33;;;;;;;29.88;26.77;;;;;;;;;;5007920;28;20046;-74
2023/06/18 05:58:59;;;;;;;28.48;25.58;;;;;;;;;;4999932;28;20058;-74
2023/06/18 06:01:25;;;;;;;28.13;25.17;;;;;;;;;;5011020;28;20376;-74
2023/06/18 06:03:51;;;;;;;26.13;23.55;;;;;;;;;;5008608;28;20392;-74
2023/06/18 06:06:17;;;;;;;25.80;22.92;;;;;;;;;;5007948;28;20047;-73
2023/06/18 06:08:43;;;;;;;27.27;24.52;;;;;;;;;;4995317;28;20430;-73
2023/06/18 06:11:09;;;;;;;26.13;23.50;;;;;;;;;;4994537;28;20408;-74
2023/06/18 06:13:35;;;;;;;26.42;23.63;;;;;;;;;;5012964;28;20049;-74
2023/06/18 06:16:01;;;;;;;26.25;23.55;;;;;;;;;;5005595;28;20034;-73
2023/06/18 06:18:27;;;;;;;26.70;24.00;;;;;;;;;;5011469;28;20042;-74
2023/06/18 06:20:53;;;;;;;27.20;24.15;;;;;;;;;;5008848;28;20064;-73
2023/06/18 06:23:20;;;;;;;25.73;23.13;;;;;;;;;;5017485;28;20046;-75
2023/06/18 06:25:46;;;;;;;25.77;23.02;;;;;;;;;;5000375;28;20054;-75
2023/06/18 06:28:12;;;;;;;26.17;23.67;;;;;;;;;;5004325;28;20084;-75
2023/06/18 06:30:38;;;;;;;25.05;22.55;;;;;;;;;;5002798;28;20100;-75
2023/06/18 06:33:04;;;;;;;23.77;21.30;;;;;;;;;;5000417;28;20050;-75
2023/06/18 06:35:31;;;;;;;24.38;21.83;;;;;;;;;;4998757;28;20492;-74
2023/06/18 06:37:57;;;;;;;23.98;21.67;;;;;;;;;;4997325;28;20488;-74
2023/06/18 06:40:24;;;;;;;24.55;22.05;;;;;;;;;;4999151;28;20043;-74
2023/06/18 06:42:50;;;;;;;23.52;21.13;;;;;;;;;;5017314;28;20489;-74
2023/06/18 06:45:16;;;;;;;23.45;21.15;;;;;;;;;;5017719;28;20455;-74
2023/06/18 06:47:42;;;;;;;24.27;21.73;;;;;;;;;;5010824;28;20034;-74
2023/06/18 06:50:08;;;;;;;24.05;21.55;;;;;;;;;;4999487;28;20096;-74
2023/06/18 06:52:34;;;;;;;23.35;21.05;;;;;;;;;;4996138;28;20041;-74
2023/06/18 06:55:00;;;;;;;23.42;21.13;;;;;;;;;;5000666;28;20038;-73
2023/06/18 06:57:26;;;;;;;22.95;20.65;;;;;;;;;;5010140;28;20078;-74
2023/06/18 06:59:52;;;;;;;22.58;20.27;;;;;;;;;;5004303;28;20049;-74
2023/06/18 07:02:19;;;;;;;21.80;19.60;;;;;;;;;;5004056;28;20181;-74
2023/06/18 07:04:47;;;;;;;23.15;20.65;;;;;;;;;;5011050;28;20066;-74
2023/06/18 07:07:15;;;;;;;22.88;20.67;;;;;;;;;;5002429;28;20113;-74
2023/06/18 07:09:41;;;;;;;23.63;21.23;;;;;;;;;;5008208;28;20081;-74
2023/06/18 07:12:08;;;;;;;21.42;19.20;;;;;;;;;;4996916;28;20484;-74
2023/06/18 07:14:34;;;;;;;21.13;19.02;;;;;;;;;;4997445;28;20054;-75
2023/06/18 07:17:00;;;;;;;21.38;19.05;;;;;;;;;;5004012;28;20046;-75
2023/06/18 07:19:26;;;;;;;19.75;17.67;;;;;;;;;;5008438;28;20073;-74
2023/06/18 07:21:53;;;;;;;18.73;16.73;;;;;;;;;;4998247;28;20054;-74
2023/06/18 07:24:20;;;;;;;18.58;16.48;;;;;;;;;;5000181;28;20049;-74
2023/06/18 07:26:46;;;;;;;19.65;16.73;;;;;;;;;;5015942;28;20046;-74
2023/06/18 07:29:12;;;;;;;19.33;17.33;;;;;;;;;;5011341;28;20042;-74
2023/06/18 07:31:38;;;;;;;18.05;16.25;;;;;;;;;;5012792;28;20053;-74
2023/06/18 07:34:04;;;;;;;18.08;15.27;;;;;;;;;;5017976;28;20084;-74
2023/06/18 07:36:30;;;;;;;18.13;16.27;;;;;;;;;;5017295;28;20062;-74
2023/06/18 07:38:57;;;;;;;17.65;15.85;;;;;;;;;;5009616;28;20042;-75
2023/06/18 07:41:23;;;;;;;18.92;16.92;;;;;;;;;;5005708;28;20049;-74
2023/06/18 07:43:49;;;;;;;18.13;16.02;;;;;;;;;;4997448;28;20042;-75
2023/06/18 07:46:15;;;;;;;17.17;15.35;;;;;;;;;;5011425;28;20046;-73
2023/06/18 07:48:41;;;;;;;17.27;14.68;;;;;;;;;;5016959;28;20049;-74
2023/06/18 07:51:07;;;;;;;17.52;15.82;;;;;;;;;;5017560;28;20057;-74
2023/06/18 07:53:33;;;;;;;18.10;13.55;;;;;;;;;;5016811;28;20081;-73
2023/06/18 07:56:00;;;;;;;17.77;13.85;;;;;;;;;;5016270;28;20052;-73
2023/06/18 07:58:26;;;;;;;16.48;14.32;;;;;;;;;;5015462;28;20393;-73
2023/06/18 08:00:52;;;;;;;14.85;13.32;;;;;;;;;;5007534;28;20054;-74
2023/06/18 08:03:18;;;;;;;17.80;14.13;;;;;;;;;;4997114;28;20069;-73
2023/06/18 08:05:45;;;;;;;16.08;12.85;;;;;;;;;;4997188;28;20050;-73
2023/06/18 08:08:13;;;;;;;14.27;12.50;;;;;;;;;;5003308;28;20408;-73
2023/06/18 08:10:40;;;;;;;14.95;13.40;;;;;;;;;;5014624;28;20121;-73
2023/06/18 08:13:06;;;;;;;16.13;13.68;;;;;;;;;;5011132;28;20117;-73
2023/06/18 08:15:32;;;;;;;14.75;13.15;;;;;;;;;;5011144;28;20053;-73
2023/06/18 08:17:58;;;;;;;14.98;13.38;;;;;;;;;;5018783;28;20069;-73
2023/06/18 08:20:24;;;;;;;13.70;12.23;;;;;;;;;;5014541;28;20049;-73
2023/06/18 08:22:50;;;;;;;14.93;13.40;;;;;;;;;;5001165;28;20046;-73
2023/06/18 08:25:16;;;;;;;15.40;12.40;;;;;;;;;;5007320;28;20058;-73
2023/06/18 08:27:42;;;;;;;15.00;12.98;;;;;;;;;;5014709;28;20484;-73
2023/06/18 08:30:08;;;;;;;14.65;11.98;;;;;;;;;;5002528;28;20053;-73
2023/06/18 08:32:37;;;;;;;13.43;12.02;;;;;;;;;;5014979;28;20046;-73
2023/06/18 08:35:04;;;;;;;14.77;12.52;;;;;;;;;;4996942;28;20054;-73
2023/06/18 08:37:30;;;;;;;14.45;11.43;;;;;;;;;;5021924;28;20469;-73
2023/06/18 08:39:56;;;;;;;15.05;11.43;;;;;;;;;;5014171;28;20125;-73
2023/06/18 08:42:22;;;;;;;15.75;12.15;;;;;;;;;;5005796;28;20060;-73
2023/06/18 08:44:50;;;;;;;13.95;11.48;;;;;;;;;;5013316;28;20057;-73
2023/06/18 08:47:16;;;;;;;15.15;11.27;;;;;;;;;;5011132;28;20045;-74
2023/06/18 08:49:44;;;;;;;14.05;10.82;;;;;;;;;;5002289;28;20481;-73
2023/06/18 08:52:10;;;;;;;13.25;9.77;;;;;;;;;;5009042;28;20132;-73
2023/06/18 08:54:39;;;;;;;13.32;9.70;;;;;;;;;;5012868;28;20121;-73
2023/06/18 08:57:10;;;;;;;10.88;9.43;;;;;;;;;;5010718;28;20460;-73
2023/06/18 08:59:37;;;;;;;11.88;9.07;;;;;;;;;;5013217;28;20047;-72
2023/06/18 09:02:04;;;;;;;12.25;9.40;;;;;;;;;;5000802;28;20050;-73
2023/06/18 09:04:31;;;;;;;12.05;8.95;;;;;;;;;;5004595;28;20120;-72
2023/06/18 09:06:58;;;;;;;12.50;8.98;;;;;;;;;;4994151;28;20496;-73
2023/06/18 09:09:25;;;;;;;11.38;8.80;;;;;;;;;;4996504;28;20070;-73
2023/06/18 09:11:51;;;;;;;10.18;7.78;;;;;;;;;;5001753;28;20455;-73
2023/06/18 09:14:17;;;;;;;10.07;7.80;;;;;;;;;;4999420;28;20385;-72
2023/06/18 09:16:43;;;;;;;10.82;7.38;;;;;;;;;;4994759;28;20412;-72
2023/06/18 09:19:09;;;;;;;9.10;7.00;;;;;;;;;;4995254;28;20100;-73
2023/06/18 09:21:37;;;;;;;11.38;6.88;;;;;;;;;;4994431;28;20054;-73
2023/06/18 09:24:03;;;;;;;9.13;7.10;;;;;;;;;;4994007;28;20054;-73
2023/06/18 09:26:33;;;;;;;11.00;7.10;;;;;;;;;;5013826;28;20037;-74
2023/06/18 09:29:02;;;;;;;11.27;7.47;;;;;;;;;;5012512;28;20049;-73
2023/06/18 09:31:28;;;;;;;21.15;6.85;;;;;;;;;;5010820;28;20054;-74
2023/06/18 09:33:54;;;;;;;11.30;6.40;;;;;;;;;;5006268;28;20144;-74
2023/06/18 09:36:20;;;;;;;12.30;6.10;;;;;;;;;;4998082;28;20507;-74
2023/06/18 09:38:46;;;;;;;10.18;6.30;;;;;;;;;;5009208;28;20053;-73
2023/06/18 09:41:13;;;;;;;9.73;6.47;;;;;;;;;;5013437;28;20042;-73
2023/06/18 09:43:43;;;;;;;8.82;6.43;;;;;;;;;;5000358;28;20073;-73
2023/06/18 09:46:10;;;;;;;11.07;7.30;;;;;;;;;;4993837;28;20401;-73
2023/06/18 09:48:46;;;;;;;8.88;6.82;;;;;;;;;;4993583;28;20055;-73
2023/06/18 09:51:15;;;;;;;9.18;6.65;;;;;;;;;;4994503;28;20038;-72
2023/06/18 09:53:41;;;;;;;11.02;6.97;;;;;;;;;;5005268;28;20496;-73
2023/06/18 09:56:12;;;;;;;11.48;6.90;;;;;;;;;;4998695;28;20058;-73
2023/06/18 09:58:42;;;;;;;13.00;6.10;;;;;;;;;;4994523;28;20110;-73
2023/06/18 10:01:09;;;;;;;10.13;6.18;;;;;;;;;;5001633;28;20563;-73
2023/06/18 10:03:35;;;;;;;10.73;6.65;;;;;;;;;;5002692;28;20044;-74
2023/06/18 10:06:12;;;;;;;12.02;6.68;;;;;;;;;;4996219;28;20058;-75
2023/06/18 10:08:40;;;;;;;7.50;5.97;;;;;;;;;;5002996;28;20125;-74
2023/06/18 10:11:08;;;;;;;8.85;6.70;;;;;;;;;;5013812;28;20041;-73
2023/06/18 10:13:35;;;;;;;9.48;6.40;;;;;;;;;;5012180;28;20061;-74
2023/06/18 10:16:02;;;;;;;9.23;6.65;;;;;;;;;;4996187;28;20110;-74
2023/06/18 10:18:28;;;;;;;8.95;7.20;;;;;;;;;;4994598;28;20129;-72
2023/06/18 10:20:55;;;;;;;8.50;6.93;;;;;;;;;;4995334;28;20046;-74
2023/06/18 10:23:23;;;;;;;10.95;6.97;;;;;;;;;;4994631;28;20405;-74
2023/06/18 10:25:50;;;;;;;9.05;6.75;;;;;;;;;;4994343;28;20044;-74
2023/06/18 10:28:16;;;;;;;10.23;6.30;;;;;;;;;;5006027;28;20357;-74
2023/06/18 10:30:42;;;;;;;12.55;7.45;;;;;;;;;;4993704;28;20034;-74
2023/06/18 10:33:08;;;;;;;10.40;7.03;;;;;;;;;;5008648;28;20046;-73
2023/06/18 10:35:35;;;;;;;10.93;6.70;;;;;;;;;;5013912;28;20435;-74
2023/06/18 10:38:02;;;;;;;8.80;5.93;;;;;;;;;;5014463;28;20060;-74
2023/06/18 10:40:28;;;;;;;7.70;5.95;;;;;;;;;;5014742;28;20484;-74
2023/06/18 10:43:03;;;;;;;9.05;5.88;;;;;;;;;;5008342;28;20062;-74
2023/06/18 10:45:29;;;;;;;8.40;6.07;;;;;;;;;;5002238;28;20121;-74
2023/06/18 10:48:15;;;;;;;9.82;6.72;;;;;;;;;;4995399;28;20050;-74
2023/06/18 10:50:42;;;;;;;7.90;6.07;;;;;;;;;;4994102;28;20090;-74
2023/06/18 10:53:23;;;;;;;8.77;6.13;;;;;;;;;;5013445;28;20129;-74
2023/06/18 10:55:58;;;;;;;9.23;6.13;;;;;;;;;;5005715;28;20098;-74
2023/06/18 10:58:34;;;;;;;8.63;5.80;;;;;;;;;;5015893;28;20471;-75
2023/06/18 11:01:00;;;;;;;8.15;6.57;;;;;;;;;;5018088;28;20053;-74
2023/06/18 11:03:40;;;;;;;8.07;6.18;;;;;;;;;;5005130;28;20046;-74
2023/06/18 11:06:09;;;;;;;8.57;5.75;;;;;;;;;;5007512;28;20054;-75
2023/06/18 11:08:37;;;;;;;9.98;5.63;;;;;;;;;;4997969;28;20049;-73
2023/06/18 11:11:07;;;;;;;8.52;5.63;;;;;;;;;;5010654;28;20046;-74
2023/06/18 11:13:37;;;;;;;12.00;5.55;;;;;;;;;;5019835;28;20139;-74
2023/06/18 11:16:06;;;;;;;7.93;5.47;;;;;;;;;;5018484;28;20129;-74
2023/06/18 11:18:33;;;;;;;7.88;5.88;;;;;;;;;;4998230;28;20047;-74
2023/06/18 11:20:59;;;;;;;8.43;5.45;;;;;;;;;;4998231;28;20090;-75
2023/06/18 11:23:27;;;;;;;11.48;5.72;;;;;;;;;;4998730;28;20050;-74
2023/06/18 11:25:53;;;;;;;9.10;5.60;;;;;;;;;;4997487;28;20050;-74
2023/06/18 11:28:20;;;;;;;9.38;5.85;;;;;;;;;;5014114;28;20149;-73
2023/06/18 11:30:52;;;;;;;7.50;6.15;;;;;;;;;;5015928;28;20065;-75
2023/06/18 11:33:25;;;;;;;9.57;6.05;;;;;;;;;;4997827;28;20061;-73
2023/06/18 11:35:52;;;;;;;8.95;5.80;;;;;;;;;;5005204;28;20042;-74
2023/06/18 11:38:19;;;;;;;8.52;6.00;;;;;;;;;;5016950;28;20038;-74
2023/06/18 11:40:52;;;;;;;9.68;6.18;;;;;;;;;;5016331;28;20060;-74
2023/06/18 11:43:18;;;;;;;8.25;6.13;;;;;;;;;;5017549;28;20041;-74
2023/06/18 11:45:48;;;;;;;8.10;6.45;;;;;;;;;;5017090;28;20076;-74
2023/06/18 11:48:16;;;;;;;7.05;5.82;;;;;;;;;;5016287;28;20050;-75
2023/06/18 11:50:43;;;;;;;10.50;6.57;;;;;;;;;;5005415;28;20156;-74
2023/06/18 11:53:11;;;;;;;9.95;6.05;;;;;;;;;;5017568;28;20050;-73
2023/06/18 11:55:37;;;;;;;8.48;6.28;;;;;;;;;;5012697;28;20046;-75
2023/06/18 11:58:04;;;;;;;8.20;6.78;;;;;;;;;;4997655;28;20121;-73
2023/06/18 12:00:30;;;;;;;9.27;6.40;;;;;;;;;;4997858;28;20089;-75
2023/06/18 12:03:00;;;;;;;8.77;6.22;;;;;;;;;;4997306;28;20046;-75
2023/06/18 12:05:33;;;;;;;8.10;6.40;;;;;;;;;;4999926;28;20062;-73
2023/06/18 12:08:07;;;;;;;7.32;5.85;;;;;;;;;;4996950;28;20312;-74
2023/06/18 12:10:34;;;;;;;7.93;6.20;;;;;;;;;;4998257;28;20070;-74
2023/06/18 12:13:08;;;;;;;8.48;6.78;;;;;;;;;;5014955;28;20158;-74
2023/06/18 12:15:33;;;;;;;8.52;6.20;;;;;;;;;;5019693;28;20045;-75
2023/06/18 12:18:08;;;;;;;8.35;6.40;;;;;;;;;;5015381;28;20077;-74
2023/06/18 12:20:35;;;;;;;10.23;6.55;;;;;;;;;;5013898;28;20463;-74
2023/06/18 12:23:02;;;;;;;8.68;6.13;;;;;;;;;;5015410;28;20045;-75
2023/06/18 12:25:29;;;;;;;9.02;6.40;;;;;;;;;;5016700;28;20056;-74
2023/06/18 12:27:57;;;;;;;9.27;6.50;;;;;;;;;;5017121;28;20080;-75
2023/06/18 12:30:28;;;;;;;8.32;6.35;;;;;;;;;;5000156;28;20050;-75
2023/06/18 12:32:54;;;;;;;;;;;;;;;;;;4998524;28;20082;-74
2023/06/18 12:35:21;;;;;;;8.40;6.38;;;;;;;;;;4999569;28;19979;-75
2023/06/18 12:37:47;;;;;;;9.43;6.60;;;;;;;;;;5017090;28;20049;-74
2023/06/18 12:40:20;;;;;;;8.15;6.05;;;;;;;;;;5003002;28;20045;-74
2023/06/18 12:42:47;;;;;;;9.38;6.38;;;;;;;;;;4998329;28;20046;-75
2023/06/18 12:45:13;;;;;;;8.43;6.30;;;;;;;;;;4998243;28;20050;-75
2023/06/18 12:47:42;;;;;;;8.52;6.43;;;;;;;;;;4995960;28;20050;-75
2023/06/18 12:50:08;;;;;;;9.05;6.00;;;;;;;;;;5003139;28;20054;-74
2023/06/18 12:52:38;;;;;;;9.68;6.28;;;;;;;;;;4996607;28;20062;-75
2023/06/18 12:55:09;;;;;;;7.68;5.68;;;;;;;;;;4998454;28;20091;-75
2023/06/18 12:57:36;;;;;;;7.78;6.25;;;;;;;;;;4998929;28;20112;-75
2023/06/18 13:00:03;;;;;;;7.43;6.07;;;;;;;;;;4999199;28;20057;-74
2023/06/18 13:02:29;;;;;;;9.10;6.43;;;;;;;;;;4997595;28;20047;-75
2023/06/18 13:04:55;;;;;;;7.93;6.57;;;;;;;;;;5012634;28;20140;-75
2023/06/18 13:07:22;;;;;;;9.55;6.82;;;;;;;;;;5006962;28;20050;-75
2023/06/18 13:09:48;;;;;;;7.70;6.20;;;;;;;;;;5015179;28;20522;-75
2023/06/18 13:12:16;;;;;;;7.72;6.05;;;;;;;;;;5018173;28;20053;-75
2023/06/18 13:14:42;;;;;;;8.52;5.65;;;;;;;;;;5015579;28;20053;-75
2023/06/18 13:17:09;;;;;;;13.32;6.00;;;;;;;;;;5019024;28;20479;-74
2023/06/18 13:19:35;;;;;;;9.98;6.10;;;;;;;;;;5017083;28;20405;-74
2023/06/18 13:22:01;;;;;;;8.43;5.70;;;;;;;;;;5015153;28;20093;-74
2023/06/18 13:24:27;;;;;;;9.43;5.80;;;;;;;;;;5017063;28;20048;-76
2023/06/18 13:26:53;;;;;;;10.50;6.15;;;;;;;;;;5017618;28;20049;-76
2023/06/18 13:29:19;;;;;;;10.80;6.25;;;;;;;;;;5017451;28;20050;-74
2023/06/18 13:31:45;;;;;;;9.00;6.13;;;;;;;;;;5016496;28;20067;-75
2023/06/18 13:34:12;;;;;;;7.65;5.60;;;;;;;;;;5016090;28;20054;-74
2023/06/18 13:36:38;;;;;;;7.72;6.05;;;;;;;;;;5016438;28;20046;-75
2023/06/18 13:39:04;;;;;;;8.05;5.78;;;;;;;;;;5017102;28;20389;-75
2023/06/18 13:41:30;;;;;;;9.57;6.15;;;;;;;;;;5009774;28;20038;-75
2023/06/18 13:43:56;;;;;;;8.80;6.13;;;;;;;;;;4996712;28;20065;-74
2023/06/18 13:46:22;;;;;;;7.47;6.07;;;;;;;;;;5000501;28;20076;-75
2023/06/18 13:48:48;;;;;;;9.00;6.15;;;;;;;;;;4997331;28;20512;-75
2023/06/18 13:51:14;;;;;;;8.13;6.13;;;;;;;;;;5014692;28;20049;-75
2023/06/18 13:53:40;;;;;;;9.50;6.57;;;;;;;;;;5017131;28;20045;-75
2023/06/18 13:56:06;;;;;;;8.88;6.20;;;;;;;;;;5015829;28;20050;-74
2023/06/18 13:58:32;;;;;;;8.50;6.25;;;;;;;;;;5002865;28;20052;-72
2023/06/18 14:00:58;;;;;;;7.93;5.93;;;;;;;;;;4996996;28;20045;-73
2023/06/18 14:03:24;;;;;;;6.80;5.70;;;;;;;;;;4995767;28;20046;-73
2023/06/18 14:05:50;;;;;;;8.35;6.53;;;;;;;;;;4993546;28;20469;-73
2023/06/18 14:08:17;;;;;;;9.05;6.82;;;;;;;;;;4995220;28;20129;-73
2023/06/18 14:10:43;;;;;;;14.45;6.50;;;;;;;;;;4994293;28;20043;-76
2023/06/18 14:13:09;;;;;;;13.32;6.43;;;;;;;;;;5006512;28;20124;-74
2023/06/18 14:15:35;;;;;;;10.15;6.50;;;;;;;;;;4998438;28;20056;-74
2023/06/18 14:18:01;;;;;;;10.40;6.40;;;;;;;;;;5016106;28;20053;-74
2023/06/18 14:20:27;;;;;;;16.05;6.50;;;;;;;;;;5012785;28;20144;-74
2023/06/18 14:22:54;;;;;;;9.80;7.10;;;;;;;;;;4991769;28;20057;-74
2023/06/18 14:25:20;;;;;;;8.32;6.43;;;;;;;;;;5014929;28;20128;-75